Time;durP1;ratioP1;P1;durP2;ratioP2;P2;SDS_P1;SDS_P2;PMS_P1;PMS_P2;Temp;Humidity;BMP_temperature;BMP_pressure;BME280_temperature;BME280_humidity;BME280_pressure;Samples;Min_cycle;Max_cycle;Signal;HPM_P1;HPM_P2
2022/04/15 00:00:09;;;;;;;20.90;12.32;;;;;;;;;;5000068;28;20120;-79
2022/04/15 00:02:40;;;;;;;20.65;12.35;;;;;;;;;;4993207;28;20057;-79
2022/04/15 00:07:56;;;;;;;26.35;14.35;;;;;;;;;;4999143;28;20139;-79
2022/04/15 00:10:24;;;;;;;22.63;13.18;;;;;;;;;;5008280;28;20042;-78
2022/04/15 00:12:54;;;;;;;29.90;14.82;;;;;;;;;;5004173;28;20458;-79
2022/04/15 00:15:21;;;;;;;37.75;16.88;;;;;;;;;;5011364;28;20065;-79
2022/04/15 00:17:51;;;;;;;33.88;16.10;;;;;;;;;;5003316;28;20066;-79
2022/04/15 00:20:20;;;;;;;31.67;15.95;;;;;;;;;;4993143;28;20057;-79
2022/04/15 00:22:48;;;;;;;27.55;13.93;;;;;;;;;;5002554;28;20565;-79
2022/04/15 00:25:16;;;;;;;27.05;14.30;;;;;;;;;;4973175;28;20050;-77
2022/04/15 00:27:43;;;;;;;24.65;14.52;;;;;;;;;;4960222;28;20437;-81
2022/04/15 00:30:11;;;;;;;27.85;14.23;;;;;;;;;;4987726;28;20456;-79
2022/04/15 00:32:41;;;;;;;27.85;14.88;;;;;;;;;;4962444;28;20060;-84
2022/04/15 00:35:09;;;;;;;26.27;14.93;;;;;;;;;;4991315;28;20430;-83
2022/04/15 00:37:37;;;;;;;26.58;15.88;;;;;;;;;;4963806;28;20233;-83
2022/04/15 00:40:06;;;;;;;27.05;14.88;;;;;;;;;;4989400;28;20050;-83
2022/04/15 00:42:33;;;;;;;36.47;19.00;;;;;;;;;;4969043;28;20056;-82
2022/04/15 00:45:02;;;;;;;22.75;14.27;;;;;;;;;;4966288;28;20069;-80
2022/04/15 00:47:53;;;;;;;18.35;12.20;;;;;;;;;;4975856;28;20057;-79
2022/04/15 00:50:20;;;;;;;21.15;12.68;;;;;;;;;;4989019;28;20517;-84
2022/04/15 00:52:49;;;;;;;21.75;13.70;;;;;;;;;;5004702;28;20046;-86
2022/04/15 00:55:17;;;;;;;19.58;13.48;;;;;;;;;;5011632;28;20050;-84
2022/04/15 00:57:46;;;;;;;18.17;12.63;;;;;;;;;;4987215;28;20189;-81
2022/04/15 01:00:13;;;;;;;15.30;11.60;;;;;;;;;;5010548;28;20078;-81
2022/04/15 01:02:42;;;;;;;13.35;10.52;;;;;;;;;;4977657;28;20038;-79
2022/04/15 01:05:10;;;;;;;11.23;9.40;;;;;;;;;;4986085;28;20129;-80
2022/04/15 01:07:39;;;;;;;12.05;9.90;;;;;;;;;;4957635;28;20096;-80
2022/04/15 01:10:08;;;;;;;13.48;10.25;;;;;;;;;;4958471;28;20073;-84
2022/04/15 01:12:46;;;;;;;12.93;10.10;;;;;;;;;;4958639;28;20438;-82
2022/04/15 01:15:34;;;;;;;12.05;9.15;;;;;;;;;;4964042;28;20292;-82
2022/04/15 01:18:01;;;;;;;9.75;8.75;;;;;;;;;;4981011;28;20050;-83
2022/04/15 01:20:29;;;;;;;9.63;8.27;;;;;;;;;;4977195;28;20168;-80
2022/04/15 01:23:07;;;;;;;9.18;8.38;;;;;;;;;;4962084;28;20783;-83
2022/04/15 01:25:35;;;;;;;22.95;9.80;;;;;;;;;;4961423;28;20058;-84
2022/04/15 01:28:02;;;;;;;12.68;9.75;;;;;;;;;;4978131;28;20182;-78
2022/04/15 01:30:30;;;;;;;14.23;10.77;;;;;;;;;;4973936;28;20103;-85
2022/04/15 01:32:57;;;;;;;11.80;10.60;;;;;;;;;;4994517;28;20058;-80
2022/04/15 01:35:31;;;;;;;11.40;9.60;;;;;;;;;;4966873;28;20045;-79
2022/04/15 01:37:59;;;;;;;9.05;8.20;;;;;;;;;;4962788;28;20053;-82
2022/04/15 01:40:27;;;;;;;10.82;9.23;;;;;;;;;;4994918;28;20053;-77
2022/04/15 01:42:55;;;;;;;11.77;9.60;;;;;;;;;;4975599;28;20188;-80
2022/04/15 01:45:25;;;;;;;10.45;9.55;;;;;;;;;;4978254;28;21426;-83
2022/04/15 01:47:52;;;;;;;10.05;9.10;;;;;;;;;;4997270;28;20072;-81
2022/04/15 01:50:20;;;;;;;11.85;10.75;;;;;;;;;;4997509;28;20486;-80
2022/04/15 01:52:47;;;;;;;13.48;12.07;;;;;;;;;;4985558;28;20046;-83
2022/04/15 01:55:14;;;;;;;14.52;13.15;;;;;;;;;;4986156;28;20492;-84
2022/04/15 01:57:42;;;;;;;17.15;15.18;;;;;;;;;;5001114;28;20123;-77
2022/04/15 02:00:10;;;;;;;17.85;14.80;;;;;;;;;;4960268;28;20054;-81
2022/04/15 02:02:40;;;;;;;14.73;13.40;;;;;;;;;;4975414;28;20056;-80
2022/04/15 02:05:08;;;;;;;14.75;13.20;;;;;;;;;;4958422;28;20486;-82
2022/04/15 02:07:35;;;;;;;13.30;11.95;;;;;;;;;;4994309;28;20848;-83
2022/04/15 02:10:04;;;;;;;17.35;15.50;;;;;;;;;;4975772;28;20144;-78
2022/04/15 02:12:31;;;;;;;20.92;18.20;;;;;;;;;;4977018;28;20034;-80
2022/04/15 02:14:59;;;;;;;16.95;15.38;;;;;;;;;;4974853;28;20053;-82
2022/04/15 02:17:26;;;;;;;19.52;17.48;;;;;;;;;;4973559;28;20120;-82
2022/04/15 02:19:53;;;;;;;17.58;15.88;;;;;;;;;;4977036;28;20890;-79
2022/04/15 02:22:21;;;;;;;19.58;17.40;;;;;;;;;;4965634;28;20212;-83
2022/04/15 02:24:48;;;;;;;20.67;18.52;;;;;;;;;;4972921;28;20046;-77
2022/04/15 02:27:16;;;;;;;15.20;13.77;;;;;;;;;;4996411;28;20502;-82
2022/04/15 02:29:43;;;;;;;16.00;14.48;;;;;;;;;;4963309;28;20046;-81
2022/04/15 02:32:11;;;;;;;19.40;17.33;;;;;;;;;;4987455;28;20414;-82
2022/04/15 02:34:39;;;;;;;17.50;15.82;;;;;;;;;;4993824;28;20042;-81
2022/04/15 02:37:06;;;;;;;20.27;18.05;;;;;;;;;;4979778;28;20050;-80
2022/04/15 02:39:33;;;;;;;21.08;18.83;;;;;;;;;;4983137;28;20112;-78
2022/04/15 02:42:01;;;;;;;21.58;19.30;;;;;;;;;;4981393;28;20045;-79
2022/04/15 02:44:30;;;;;;;22.33;19.92;;;;;;;;;;4981719;28;20046;-80
2022/04/15 02:46:58;;;;;;;22.55;20.25;;;;;;;;;;4964549;28;20177;-78
2022/04/15 02:49:27;;;;;;;22.30;19.60;;;;;;;;;;4979503;28;20041;-84
2022/04/15 02:51:56;;;;;;;19.45;17.55;;;;;;;;;;4963765;28;20045;-80
2022/04/15 02:54:24;;;;;;;22.20;19.85;;;;;;;;;;4996055;28;20123;-77
2022/04/15 02:56:51;;;;;;;21.88;19.58;;;;;;;;;;4982390;28;20038;-81
2022/04/15 02:59:20;;;;;;;23.60;18.48;;;;;;;;;;4946670;28;20071;-84
2022/04/15 03:01:49;;;;;;;17.60;14.85;;;;;;;;;;4979068;28;20123;-78
2022/04/15 03:04:17;;;;;;;22.83;19.95;;;;;;;;;;4995729;28;20136;-83
2022/04/15 03:06:45;;;;;;;29.90;23.95;;;;;;;;;;4982956;28;20053;-81
2022/04/15 03:09:12;;;;;;;26.63;22.58;;;;;;;;;;4981262;28;20100;-80
2022/04/15 03:11:40;;;;;;;24.23;19.92;;;;;;;;;;4980347;28;20569;-80
2022/04/15 03:14:07;;;;;;;58.25;19.45;;;;;;;;;;4965800;28;20053;-81
2022/04/15 03:16:35;;;;;;;22.67;16.67;;;;;;;;;;4951639;28;20073;-77
2022/04/15 03:19:03;;;;;;;18.48;16.77;;;;;;;;;;5002296;28;20053;-80
2022/04/15 03:21:30;;;;;;;23.40;20.95;;;;;;;;;;4983085;28;20046;-82
2022/04/15 03:23:58;;;;;;;29.17;22.77;;;;;;;;;;4966638;28;20395;-79
2022/04/15 03:26:25;;;;;;;27.70;22.48;;;;;;;;;;4981770;28;20421;-80
2022/04/15 03:28:52;;;;;;;23.27;19.38;;;;;;;;;;4982409;28;20046;-85
2022/04/15 03:31:20;;;;;;;22.80;20.50;;;;;;;;;;5002196;28;20490;-81
2022/04/15 03:33:47;;;;;;;18.40;16.70;;;;;;;;;;4981278;28;20398;-77
2022/04/15 03:36:15;;;;;;;36.65;24.75;;;;;;;;;;4997886;28;20494;-84
2022/04/15 03:38:42;;;;;;;37.20;26.35;;;;;;;;;;4983741;28;20073;-77
2022/04/15 03:41:12;;;;;;;30.70;23.75;;;;;;;;;;4966347;28;20115;-77
2022/04/15 03:43:40;;;;;;;28.88;23.40;;;;;;;;;;4965712;28;20132;-79
2022/04/15 03:46:08;;;;;;;31.05;24.10;;;;;;;;;;4982930;28;20045;-79
2022/04/15 03:48:35;;;;;;;38.03;26.80;;;;;;;;;;4966663;28;20136;-77
2022/04/15 03:51:03;;;;;;;43.67;29.50;;;;;;;;;;4981115;28;20528;-77
2022/04/15 03:53:30;;;;;;;51.25;32.13;;;;;;;;;;4979980;28;20049;-83
2022/04/15 03:55:58;;;;;;;41.58;29.77;;;;;;;;;;4981135;28;20042;-78
2022/04/15 03:58:25;;;;;;;45.15;30.58;;;;;;;;;;4982464;28;20042;-78
2022/04/15 04:00:55;;;;;;;48.55;31.38;;;;;;;;;;4980699;28;20053;-80
2022/04/15 04:03:23;;;;;;;48.55;32.60;;;;;;;;;;4981070;28;20136;-82
2022/04/15 04:05:50;;;;;;;53.30;34.42;;;;;;;;;;4963041;28;20524;-83
2022/04/15 04:08:18;;;;;;;62.80;39.22;;;;;;;;;;4979564;28;20042;-77
2022/04/15 04:10:45;;;;;;;45.78;31.15;;;;;;;;;;4949595;28;20431;-81
2022/04/15 04:13:13;;;;;;;40.78;30.63;;;;;;;;;;4978857;28;20050;-82
2022/04/15 04:15:40;;;;;;;39.80;28.80;;;;;;;;;;5000177;28;20052;-77
2022/04/15 04:18:09;;;;;;;39.33;29.13;;;;;;;;;;4984347;28;20057;-82
2022/04/15 04:20:37;;;;;;;43.80;30.13;;;;;;;;;;4982908;28;20050;-77
2022/04/15 04:23:04;;;;;;;39.40;29.23;;;;;;;;;;4982969;28;20120;-77
2022/04/15 04:25:32;;;;;;;38.53;28.60;;;;;;;;;;4981010;28;20128;-80
2022/04/15 04:28:00;;;;;;;39.47;31.25;;;;;;;;;;4999062;28;20121;-83
2022/04/15 04:30:27;;;;;;;54.63;36.03;;;;;;;;;;4985666;28;20490;-77
2022/04/15 04:32:54;;;;;;;45.40;29.13;;;;;;;;;;4988736;28;20042;-80
2022/04/15 04:35:22;;;;;;;46.42;31.70;;;;;;;;;;4980036;28;20099;-81
2022/04/15 04:37:50;;;;;;;53.05;33.80;;;;;;;;;;4981999;28;20100;-78
2022/04/15 04:40:17;;;;;;;44.47;30.55;;;;;;;;;;4971846;28;20083;-80
2022/04/15 04:42:45;;;;;;;49.72;34.03;;;;;;;;;;5005475;28;20054;-83
2022/04/15 04:45:13;;;;;;;53.15;34.78;;;;;;;;;;4973431;28;20100;-81
2022/04/15 04:47:42;;;;;;;75.65;39.65;;;;;;;;;;4973211;28;20058;-82
2022/04/15 04:50:10;;;;;;;47.60;31.90;;;;;;;;;;4981569;28;20041;-78
2022/04/15 04:52:38;;;;;;;36.60;26.38;;;;;;;;;;4997680;28;20177;-79
2022/04/15 04:55:07;;;;;;;28.95;23.85;;;;;;;;;;4980019;28;20053;-81
2022/04/15 04:57:34;;;;;;;30.95;23.88;;;;;;;;;;4967878;28;20034;-79
2022/04/15 05:00:02;;;;;;;32.42;23.55;;;;;;;;;;4978784;28;20095;-77
2022/04/15 05:02:30;;;;;;;40.78;27.88;;;;;;;;;;4947626;28;20064;-78
2022/04/15 05:04:57;;;;;;;44.67;29.55;;;;;;;;;;4980328;28;20499;-78
2022/04/15 05:07:25;;;;;;;33.83;26.50;;;;;;;;;;4998045;28;20069;-80
2022/04/15 05:09:53;;;;;;;35.85;25.95;;;;;;;;;;4963327;28;20042;-82
2022/04/15 05:12:20;;;;;;;34.22;26.25;;;;;;;;;;4964951;28;20374;-82
2022/04/15 05:14:47;;;;;;;36.30;26.48;;;;;;;;;;4964626;28;20041;-78
2022/04/15 05:17:15;;;;;;;47.60;32.15;;;;;;;;;;5004690;28;20038;-77
2022/04/15 05:19:45;;;;;;;35.25;27.02;;;;;;;;;;5002074;28;20522;-78
2022/04/15 05:22:13;;;;;;;54.28;34.45;;;;;;;;;;4957686;28;20128;-78
2022/04/15 05:24:40;;;;;;;47.25;31.40;;;;;;;;;;4974537;28;20482;-78
2022/04/15 05:27:08;;;;;;;59.25;36.92;;;;;;;;;;5001368;28;20041;-81
2022/04/15 05:29:36;;;;;;;53.33;35.45;;;;;;;;;;4957507;28;20142;-77
2022/04/15 05:32:03;;;;;;;57.85;37.03;;;;;;;;;;4989955;28;20046;-80
2022/04/15 05:34:31;;;;;;;49.03;34.97;;;;;;;;;;4974617;28;20052;-77
2022/04/15 05:36:58;;;;;;;51.40;32.28;;;;;;;;;;4975697;28;20137;-82
2022/04/15 05:39:26;;;;;;;57.72;36.13;;;;;;;;;;4990862;28;20038;-78
2022/04/15 05:41:53;;;;;;;53.03;35.28;;;;;;;;;;5007582;28;20045;-77
2022/04/15 05:44:21;;;;;;;53.40;35.10;;;;;;;;;;4989475;28;20132;-78
2022/04/15 05:46:48;;;;;;;60.55;37.50;;;;;;;;;;4972202;28;20141;-79
2022/04/15 05:49:17;;;;;;;32.92;25.83;;;;;;;;;;4989894;28;20137;-77
2022/04/15 05:51:45;;;;;;;26.58;21.95;;;;;;;;;;4989173;28;20042;-77
2022/04/15 05:54:13;;;;;;;40.25;27.10;;;;;;;;;;5006709;28;20419;-77
2022/04/15 05:56:40;;;;;;;46.45;35.00;;;;;;;;;;4972678;28;20600;-79
2022/04/15 05:59:09;;;;;;;46.75;34.70;;;;;;;;;;4971596;28;20046;-80
2022/04/15 06:01:36;;;;;;;50.42;34.55;;;;;;;;;;4991546;28;20038;-79
2022/04/15 06:04:03;;;;;;;51.88;37.75;;;;;;;;;;4988639;28;20440;-77
2022/04/15 06:06:31;;;;;;;50.90;34.22;;;;;;;;;;4973490;28;20077;-78
2022/04/15 06:08:59;;;;;;;50.47;35.65;;;;;;;;;;4990302;28;20075;-77
2022/04/15 06:11:26;;;;;;;54.10;37.65;;;;;;;;;;4975648;28;20049;-78
2022/04/15 06:13:53;;;;;;;49.47;34.42;;;;;;;;;;4986044;28;20041;-79
2022/04/15 06:16:21;;;;;;;47.45;35.80;;;;;;;;;;4990121;28;20117;-79
2022/04/15 06:18:49;;;;;;;51.67;36.28;;;;;;;;;;4958022;28;20558;-82
2022/04/15 06:21:36;;;;;;;51.35;39.35;;;;;;;;;;4989886;28;20037;-77
2022/04/15 06:24:04;;;;;;;49.85;35.38;;;;;;;;;;4990440;28;20045;-80
2022/04/15 06:26:32;;;;;;;47.05;32.47;;;;;;;;;;4988460;28;20387;-81
2022/04/15 06:28:59;;;;;;;54.45;38.28;;;;;;;;;;5015464;28;20136;-77
2022/04/15 06:31:27;;;;;;;52.28;36.17;;;;;;;;;;4975096;28;20056;-77
2022/04/15 06:33:54;;;;;;;50.35;35.70;;;;;;;;;;4991751;28;20037;-81
2022/04/15 06:36:22;;;;;;;56.60;36.03;;;;;;;;;;4996343;28;20044;-80
2022/04/15 06:38:49;;;;;;;53.05;37.22;;;;;;;;;;5017749;28;20041;-77
2022/04/15 06:41:16;;;;;;;48.17;34.53;;;;;;;;;;4966062;28;20050;-82
2022/04/15 06:43:44;;;;;;;41.10;31.85;;;;;;;;;;5016921;28;20038;-78
2022/04/15 06:46:11;;;;;;;48.15;35.85;;;;;;;;;;4990232;28;20053;-77
2022/04/15 06:48:38;;;;;;;50.78;36.22;;;;;;;;;;5007036;28;20053;-80
2022/04/15 06:51:06;;;;;;;42.65;32.97;;;;;;;;;;5003926;28;20136;-82
2022/04/15 06:53:34;;;;;;;51.85;38.28;;;;;;;;;;4997264;28;20375;-77
2022/04/15 06:56:01;;;;;;;39.00;28.90;;;;;;;;;;4989001;28;20421;-81
2022/04/15 06:58:29;;;;;;;30.35;26.35;;;;;;;;;;4989743;28;20061;-77
2022/04/15 07:00:56;;;;;;;39.13;30.88;;;;;;;;;;4971193;28;20050;-78
2022/04/15 07:03:25;;;;;;;35.78;29.27;;;;;;;;;;4981765;28;20576;-81
2022/04/15 07:05:52;;;;;;;31.42;26.33;;;;;;;;;;4999539;28;20066;-78
2022/04/15 07:08:19;;;;;;;42.60;32.15;;;;;;;;;;5010098;28;20051;-78
2022/04/15 07:11:07;;;;;;;41.55;31.85;;;;;;;;;;4979933;28;20064;-78
2022/04/15 07:13:38;;;;;;;34.05;28.70;;;;;;;;;;5009060;28;20092;-84
2022/04/15 07:16:09;;;;;;;38.08;31.02;;;;;;;;;;4980474;28;20050;-77
2022/04/15 07:18:36;;;;;;;44.53;31.60;;;;;;;;;;5006008;28;20065;-84
2022/04/15 07:21:05;;;;;;;40.72;33.47;;;;;;;;;;4973627;28;20052;-77
2022/04/15 07:23:32;;;;;;;35.50;30.10;;;;;;;;;;4976929;28;20052;-77
2022/04/15 07:25:59;;;;;;;37.22;30.90;;;;;;;;;;4971486;28;20053;-78
2022/04/15 07:28:27;;;;;;;31.15;26.45;;;;;;;;;;5004736;28;20326;-83
2022/04/15 07:30:54;;;;;;;35.38;29.65;;;;;;;;;;4986816;28;20038;-80
2022/04/15 07:33:22;;;;;;;33.58;29.95;;;;;;;;;;5005014;28;20045;-80
2022/04/15 07:35:49;;;;;;;35.00;29.00;;;;;;;;;;5007057;28;20637;-78
2022/04/15 07:38:16;;;;;;;36.60;30.45;;;;;;;;;;5000567;28;20555;-80
2022/04/15 07:40:44;;;;;;;29.20;26.05;;;;;;;;;;4968900;28;20384;-84
2022/04/15 07:43:11;;;;;;;29.23;26.05;;;;;;;;;;4971610;28;21393;-77
2022/04/15 07:45:39;;;;;;;31.92;28.33;;;;;;;;;;4974631;28;20076;-78
2022/04/15 07:48:07;;;;;;;33.72;27.63;;;;;;;;;;4998696;28;20045;-79
2022/04/15 07:50:35;;;;;;;28.23;24.50;;;;;;;;;;4978987;28;20120;-83
2022/04/15 07:53:02;;;;;;;30.42;25.02;;;;;;;;;;4992607;28;20087;-82
2022/04/15 07:55:29;;;;;;;25.80;23.20;;;;;;;;;;5005420;28;20105;-77
2022/04/15 07:57:57;;;;;;;26.88;24.02;;;;;;;;;;5004084;28;20044;-79
2022/04/15 08:00:29;;;;;;;27.23;24.33;;;;;;;;;;5002548;28;20126;-80
2022/04/15 08:02:57;;;;;;;26.25;23.55;;;;;;;;;;4962313;28;20054;-81
2022/04/15 08:05:24;;;;;;;21.40;19.17;;;;;;;;;;4978507;28;20038;-77
2022/04/15 08:07:52;;;;;;;24.70;22.30;;;;;;;;;;4973239;28;20073;-78
2022/04/15 08:10:20;;;;;;;21.75;19.65;;;;;;;;;;5011304;28;20103;-80
2022/04/15 08:12:49;;;;;;;22.02;19.95;;;;;;;;;;4986709;28;20034;-82
2022/04/15 08:15:16;;;;;;;15.95;14.27;;;;;;;;;;4996132;28;20042;-80
2022/04/15 08:17:44;;;;;;;19.17;17.38;;;;;;;;;;4967602;28;20041;-81
2022/04/15 08:20:11;;;;;;;18.70;17.00;;;;;;;;;;4977772;28;20046;-79
2022/04/15 08:22:38;;;;;;;13.77;12.48;;;;;;;;;;4972506;28;20124;-81
2022/04/15 08:25:06;;;;;;;12.85;10.88;;;;;;;;;;4975455;28;20044;-82
2022/04/15 08:27:34;;;;;;;13.38;11.52;;;;;;;;;;4989452;28;20056;-80
2022/04/15 08:30:01;;;;;;;12.82;11.20;;;;;;;;;;5008588;28;20057;-78
2022/04/15 08:32:33;;;;;;;11.35;10.35;;;;;;;;;;4972923;28;20631;-79
2022/04/15 08:35:08;;;;;;;12.15;11.00;;;;;;;;;;4972892;28;20081;-82
2022/04/15 08:37:35;;;;;;;10.57;9.68;;;;;;;;;;4999858;28;20461;-83
2022/04/15 08:40:03;;;;;;;12.20;9.43;;;;;;;;;;5012007;28;20335;-82
2022/04/15 08:42:31;;;;;;;9.90;8.90;;;;;;;;;;4987821;28;20061;-81
2022/04/15 08:44:58;;;;;;;10.38;9.40;;;;;;;;;;4989003;28;20046;-77
2022/04/15 08:47:28;;;;;;;10.80;9.75;;;;;;;;;;5004892;28;20038;-81
2022/04/15 08:49:56;;;;;;;9.48;8.57;;;;;;;;;;4989108;28;20738;-78
2022/04/15 08:52:23;;;;;;;11.93;8.65;;;;;;;;;;5005367;28;20645;-81
2022/04/15 08:54:51;;;;;;;9.30;8.50;;;;;;;;;;5000462;28;20403;-78
2022/04/15 08:57:18;;;;;;;9.60;8.70;;;;;;;;;;4972213;28;20072;-79
2022/04/15 08:59:46;;;;;;;9.52;8.43;;;;;;;;;;5006371;28;20149;-81
2022/04/15 09:02:29;;;;;;;8.30;7.60;;;;;;;;;;4987859;28;20049;-77
2022/04/15 09:04:57;;;;;;;7.43;6.80;;;;;;;;;;4987900;28;20054;-79
2022/04/15 09:07:28;;;;;;;8.02;7.25;;;;;;;;;;4987354;28;20045;-80
2022/04/15 09:09:56;;;;;;;7.15;6.63;;;;;;;;;;4987859;28;20410;-80
2022/04/15 09:12:25;;;;;;;7.90;7.20;;;;;;;;;;5006028;28;20046;-78
2022/04/15 09:14:58;;;;;;;7.63;7.03;;;;;;;;;;5005969;28;20048;-80
2022/04/15 09:17:43;;;;;;;7.28;6.68;;;;;;;;;;5002694;28;20042;-78
2022/04/15 09:20:11;;;;;;;6.80;6.30;;;;;;;;;;5008386;28;21589;-78
2022/04/15 09:22:38;;;;;;;8.70;6.70;;;;;;;;;;5003572;28;20413;-79
2022/04/15 09:25:06;;;;;;;6.95;6.35;;;;;;;;;;4986368;28;20136;-78
2022/04/15 09:27:35;;;;;;;7.10;6.43;;;;;;;;;;4986925;28;20041;-78
2022/04/15 09:30:04;;;;;;;7.00;6.22;;;;;;;;;;4986291;28;20053;-82
2022/04/15 09:32:31;;;;;;;5.90;5.50;;;;;;;;;;4984126;28;20080;-81
2022/04/15 09:34:58;;;;;;;7.22;5.90;;;;;;;;;;5005899;28;20045;-77
2022/04/15 09:37:27;;;;;;;7.03;5.50;;;;;;;;;;5001218;28;20128;-79
2022/04/15 09:40:14;;;;;;;7.65;6.10;;;;;;;;;;5003275;28;20034;-78
2022/04/15 09:42:44;;;;;;;6.30;5.80;;;;;;;;;;4989148;28;20050;-82
2022/04/15 09:45:19;;;;;;;6.10;5.60;;;;;;;;;;4992290;28;20045;-80
2022/04/15 09:48:13;;;;;;;6.10;5.70;;;;;;;;;;5005965;28;20128;-78
2022/04/15 09:50:42;;;;;;;5.30;4.80;;;;;;;;;;5003225;28;20048;-81
2022/04/15 09:53:09;;;;;;;7.15;5.28;;;;;;;;;;4990346;28;20192;-78
2022/04/15 09:55:39;;;;;;;6.15;5.55;;;;;;;;;;5008409;28;20040;-78
2022/04/15 09:58:11;;;;;;;5.05;4.63;;;;;;;;;;4991703;28;20117;-78
2022/04/15 10:00:40;;;;;;;5.53;5.03;;;;;;;;;;4975687;28;20383;-79
2022/04/15 10:03:08;;;;;;;5.53;5.05;;;;;;;;;;4992936;28;20054;-77
2022/04/15 10:05:37;;;;;;;6.07;4.72;;;;;;;;;;4975943;28;20455;-77
2022/04/15 10:08:05;;;;;;;4.97;4.47;;;;;;;;;;4992257;28;20055;-77
2022/04/15 10:10:33;;;;;;;5.07;4.63;;;;;;;;;;4975754;28;20058;-80
2022/04/15 10:13:01;;;;;;;5.72;4.47;;;;;;;;;;4972839;28;20510;-80
2022/04/15 10:15:30;;;;;;;5.43;4.88;;;;;;;;;;4987394;28;20143;-83
2022/04/15 10:18:01;;;;;;;5.45;4.95;;;;;;;;;;4994482;28;20037;-81
2022/04/15 10:20:52;;;;;;;5.25;4.85;;;;;;;;;;4903592;29;20143;-80
2022/04/15 10:23:20;;;;;;;4.78;4.38;;;;;;;;;;4888157;29;20048;-79
2022/04/15 10:25:49;;;;;;;4.47;4.07;;;;;;;;;;4989768;28;20521;-77
2022/04/15 10:28:17;;;;;;;4.47;4.15;;;;;;;;;;4978158;28;20576;-81
2022/04/15 10:30:51;;;;;;;4.35;3.95;;;;;;;;;;4977212;28;20045;-79
2022/04/15 10:33:30;;;;;;;3.92;3.63;;;;;;;;;;4975641;28;20427;-80
2022/04/15 10:36:22;;;;;;;3.72;3.42;;;;;;;;;;4998752;28;20773;-79
2022/04/15 10:39:09;;;;;;;3.75;3.45;;;;;;;;;;4987226;28;20084;-78
2022/04/15 10:41:42;;;;;;;4.57;3.83;;;;;;;;;;4991984;28;20132;-77
2022/04/15 10:44:28;;;;;;;4.82;3.70;;;;;;;;;;4976133;28;20050;-79
2022/04/15 10:46:59;;;;;;;5.05;4.00;;;;;;;;;;4991779;28;20577;-81
2022/04/15 10:49:30;;;;;;;4.32;3.45;;;;;;;;;;4978870;28;20860;-77
2022/04/15 10:52:15;;;;;;;4.10;3.70;;;;;;;;;;4965380;28;20054;-83
2022/04/15 10:54:46;;;;;;;3.55;3.25;;;;;;;;;;4978714;28;20080;-77
2022/04/15 10:57:15;;;;;;;3.95;3.60;;;;;;;;;;4979095;28;20056;-82
2022/04/15 11:02:41;;;;;;;4.25;3.15;;;;;;;;;;4974511;28;20050;-80
2022/04/15 11:05:11;;;;;;;5.18;4.15;;;;;;;;;;4994418;28;20046;-79
2022/04/15 11:07:50;;;;;;;4.03;3.40;;;;;;;;;;4980808;28;20661;-78
2022/04/15 11:10:38;;;;;;;3.88;3.55;;;;;;;;;;4961187;28;20053;-81
2022/04/15 11:13:05;;;;;;;3.50;3.20;;;;;;;;;;4992265;28;20033;-80
2022/04/15 11:15:54;;;;;;;3.95;3.65;;;;;;;;;;4969700;28;20052;-80
2022/04/15 11:18:21;;;;;;;3.92;3.63;;;;;;;;;;4970588;28;20069;-79
2022/04/15 11:20:49;;;;;;;4.03;3.70;;;;;;;;;;4973105;28;20395;-82
2022/04/15 11:23:17;;;;;;;4.07;3.70;;;;;;;;;;4989817;28;20052;-83
2022/04/15 11:25:45;;;;;;;4.60;4.20;;;;;;;;;;4985596;28;20762;-81
2022/04/15 11:28:12;;;;;;;4.03;3.72;;;;;;;;;;4990743;28;20503;-79
2022/04/15 11:30:40;;;;;;;4.20;3.78;;;;;;;;;;4960770;28;20104;-85
2022/04/15 11:33:07;;;;;;;3.40;3.10;;;;;;;;;;4960298;28;20353;-77
2022/04/15 11:35:35;;;;;;;3.65;3.40;;;;;;;;;;4990775;28;20505;-82
2022/04/15 11:38:04;;;;;;;4.55;4.13;;;;;;;;;;4974973;28;20124;-85
2022/04/15 11:40:34;;;;;;;4.05;3.75;;;;;;;;;;4973069;28;20728;-80
2022/04/15 11:43:07;;;;;;;4.65;4.25;;;;;;;;;;4979714;28;20048;-82
2022/04/15 11:45:36;;;;;;;4.78;4.38;;;;;;;;;;4971974;28;20534;-84
2022/04/15 11:48:16;;;;;;;3.47;3.20;;;;;;;;;;4969572;28;20450;-78
2022/04/15 11:50:44;;;;;;;3.67;3.35;;;;;;;;;;4990043;28;20695;-81
2022/04/15 11:53:13;;;;;;;3.20;3.00;;;;;;;;;;4974401;28;20038;-80
2022/04/15 11:55:47;;;;;;;3.17;2.80;;;;;;;;;;4988281;28;20046;-80
2022/04/15 11:58:15;;;;;;;3.72;3.28;;;;;;;;;;4976590;28;20542;-78
2022/04/15 12:00:43;;;;;;;3.00;2.80;;;;;;;;;;4991390;28;20042;-80
2022/04/15 12:03:13;;;;;;;3.10;2.90;;;;;;;;;;4978320;28;20605;-79
2022/04/15 12:05:41;;;;;;;2.60;2.50;;;;;;;;;;4974658;28;20451;-79
2022/04/15 12:08:08;;;;;;;3.38;3.17;;;;;;;;;;4980078;28;20050;-80
2022/04/15 12:10:40;;;;;;;6.13;2.85;;;;;;;;;;4973176;28;20061;-86
2022/04/15 12:13:07;;;;;;;;;;;;;;;;;;4974369;28;20109;-80
2022/04/15 12:15:36;;;;;;;4.57;3.10;;;;;;;;;;4976892;28;20881;-78
2022/04/15 12:18:04;;;;;;;3.83;3.22;;;;;;;;;;4993220;28;20042;-79
2022/04/15 12:20:35;;;;;;;3.72;3.53;;;;;;;;;;4975715;28;20058;-76
2022/04/15 12:23:03;;;;;;;3.22;2.80;;;;;;;;;;4992097;28;20042;-78
2022/04/15 12:26:09;;;;;;;3.03;2.85;;;;;;;;;;4994101;28;20520;-80
2022/04/15 12:31:33;;;;;;;2.88;2.67;;;;;;;;;;4975309;28;20123;-81
2022/04/15 12:34:01;;;;;;;3.28;3.08;;;;;;;;;;4972521;28;20057;-79
2022/04/15 12:36:45;;;;;;;3.00;2.80;;;;;;;;;;4988464;28;20042;-80
2022/04/15 12:39:16;;;;;;;3.50;3.20;;;;;;;;;;4993334;28;20067;-78
2022/04/15 12:41:46;;;;;;;2.45;2.35;;;;;;;;;;4988796;28;20034;-81
2022/04/15 12:44:15;;;;;;;2.60;2.40;;;;;;;;;;4987883;28;20288;-80
2022/04/15 12:46:46;;;;;;;2.10;2.00;;;;;;;;;;4971990;28;20342;-82
2022/04/15 12:49:36;;;;;;;2.92;2.63;;;;;;;;;;4986028;28;20100;-82
2022/04/15 12:52:15;;;;;;;2.75;2.55;;;;;;;;;;4984980;28;20089;-83
2022/04/15 12:54:55;;;;;;;2.63;2.38;;;;;;;;;;4965534;28;20069;-83
2022/04/15 12:57:23;;;;;;;3.33;2.63;;;;;;;;;;4973013;28;20136;-78
2022/04/15 12:59:51;;;;;;;3.22;2.92;;;;;;;;;;4973837;28;20045;-79
2022/04/15 13:02:18;;;;;;;2.72;2.53;;;;;;;;;;4992229;28;20045;-79
2022/04/15 13:04:49;;;;;;;2.33;2.22;;;;;;;;;;4991303;28;20064;-77
2022/04/15 13:07:18;;;;;;;3.17;2.78;;;;;;;;;;4975696;28;20315;-80
2022/04/15 13:09:46;;;;;;;3.83;3.53;;;;;;;;;;4974029;28;20135;-83
2022/04/15 13:12:13;;;;;;;4.78;3.72;;;;;;;;;;4997962;28;20034;-83
2022/04/15 13:14:41;;;;;;;3.92;3.50;;;;;;;;;;4968931;28;20042;-77
2022/04/15 13:17:08;;;;;;;4.88;3.45;;;;;;;;;;4998359;28;20074;-77
2022/04/15 13:19:36;;;;;;;4.88;3.67;;;;;;;;;;4982686;28;20046;-80
2022/04/15 13:22:05;;;;;;;3.70;3.40;;;;;;;;;;4971043;28;20089;-80
2022/04/15 13:24:37;;;;;;;3.47;3.17;;;;;;;;;;4996790;28;20037;-81
2022/04/15 13:27:04;;;;;;;3.75;3.30;;;;;;;;;;4981704;28;20144;-79
2022/04/15 13:29:32;;;;;;;4.55;4.10;;;;;;;;;;4996838;28;20049;-82
2022/04/15 13:32:00;;;;;;;4.35;3.97;;;;;;;;;;4995941;28;20046;-78
2022/04/15 13:34:33;;;;;;;4.10;3.88;;;;;;;;;;4963261;28;20041;-79
2022/04/15 13:37:01;;;;;;;4.72;4.30;;;;;;;;;;4977943;28;20100;-78
2022/04/15 13:39:29;;;;;;;4.28;3.95;;;;;;;;;;4992415;28;20057;-77
2022/04/15 13:41:58;;;;;;;4.63;4.28;;;;;;;;;;4975708;28;20049;-77
2022/04/15 13:44:26;;;;;;;4.43;4.00;;;;;;;;;;4975183;28;20140;-78
2022/04/15 13:46:53;;;;;;;3.97;3.58;;;;;;;;;;4994804;28;20068;-78
2022/04/15 13:49:21;;;;;;;4.10;3.85;;;;;;;;;;4995089;28;20042;-78
2022/04/15 13:51:48;;;;;;;4.47;4.10;;;;;;;;;;4997460;28;20041;-77
2022/04/15 13:57:25;;;;;;;4.90;4.45;;;;;;;;;;4986928;28;21067;-79
2022/04/15 13:59:53;;;;;;;4.82;4.50;;;;;;;;;;4975275;28;20066;-78
2022/04/15 14:02:20;;;;;;;4.47;4.10;;;;;;;;;;4991187;28;20050;-79
2022/04/15 14:04:48;;;;;;;3.95;3.65;;;;;;;;;;4988520;28;20045;-76
2022/04/15 14:07:15;;;;;;;4.32;4.03;;;;;;;;;;4966344;28;20077;-77
2022/04/15 14:09:43;;;;;;;5.13;4.72;;;;;;;;;;4991765;28;20048;-75
2022/04/15 14:12:11;;;;;;;4.60;4.30;;;;;;;;;;4991029;28;20057;-77
2022/04/15 14:14:38;;;;;;;5.05;4.70;;;;;;;;;;4973594;28;20050;-77
2022/04/15 14:17:06;;;;;;;4.63;4.22;;;;;;;;;;4976839;28;20494;-79
2022/04/15 14:19:33;;;;;;;4.05;3.80;;;;;;;;;;4991699;28;20050;-79
2022/04/15 14:22:01;;;;;;;4.20;3.90;;;;;;;;;;4991192;28;20068;-77
2022/04/15 14:24:28;;;;;;;4.40;4.10;;;;;;;;;;4994693;28;20506;-77
2022/04/15 14:26:56;;;;;;;5.03;4.55;;;;;;;;;;4976024;28;20137;-79
2022/04/15 14:29:23;;;;;;;4.25;3.95;;;;;;;;;;4975187;28;20077;-77
2022/04/15 14:31:51;;;;;;;4.80;4.40;;;;;;;;;;4980612;28;20437;-80
2022/04/15 14:34:20;;;;;;;4.40;3.97;;;;;;;;;;4995354;28;20041;-77
2022/04/15 14:36:48;;;;;;;4.80;4.30;;;;;;;;;;4960704;28;20380;-77
2022/04/15 14:39:15;;;;;;;5.57;5.00;;;;;;;;;;4989095;28;20057;-78
2022/04/15 14:41:48;;;;;;;5.75;4.30;;;;;;;;;;4979334;28;20041;-76
2022/04/15 14:44:15;;;;;;;4.88;4.47;;;;;;;;;;5001066;28;20894;-77
2022/04/15 14:46:42;;;;;;;4.38;4.00;;;;;;;;;;4976598;28;20045;-80
2022/04/15 14:49:10;;;;;;;4.30;3.90;;;;;;;;;;4993323;28;20060;-76
2022/04/15 14:51:37;;;;;;;4.03;3.60;;;;;;;;;;4993100;28;20100;-78